createdAt,value
2018-04-29T00:02:21.087Z,95396.04
2018-04-29T00:04:50.667Z,95389.73
2018-04-29T00:07:20.256Z,95385.65
2018-04-29T00:09:50.471Z,95389.11
2018-04-29T00:12:20.542Z,95390.72
2018-04-29T00:14:50.181Z,95387.19
2018-04-29T00:17:19.903Z,95381.47
2018-04-29T00:19:49.746Z,95383.56
2018-04-29T00:22:19.667Z,95374.60
2018-04-29T00:24:49.250Z,95377.05
2018-04-29T00:27:18.798Z,95378.42
2018-04-29T00:29:48.329Z,95374.09
2018-04-29T00:32:17.970Z,95372.12
2018-04-29T00:34:47.484Z,95365.89
2018-04-29T00:37:17.458Z,95372.09
2018-04-29T00:39:47.038Z,95372.95
2018-04-29T00:42:16.560Z,95380.07
2018-04-29T00:44:45.880Z,95377.61
2018-04-29T00:47:15.430Z,95371.77
2018-04-29T00:49:45.356Z,95366.67
2018-04-29T00:52:15.274Z,95366.16
2018-04-29T00:54:45.100Z,95365.28
2018-04-29T00:57:14.634Z,95359.48
2018-04-29T00:59:44.188Z,95364.23
2018-04-29T01:02:14.110Z,95364.44
2018-04-29T01:04:43.720Z,95358.83
2018-04-29T01:07:13.654Z,95360.58
2018-04-29T01:09:42.938Z,95360.84
2018-04-29T01:12:12.139Z,95360.84
2018-04-29T01:14:41.766Z,95361.00
2018-04-29T01:17:11.277Z,95361.52
2018-04-29T01:19:40.877Z,95355.70
2018-04-29T01:22:10.421Z,95357.30
2018-04-29T01:24:39.944Z,95356.25
2018-04-29T01:27:09.494Z,95357.76
2018-04-29T01:29:39.042Z,95362.00
2018-04-29T01:32:08.882Z,95356.63
2018-04-29T01:34:38.804Z,95355.36
2018-04-29T01:37:08.738Z,95341.33
2018-04-29T01:39:38.562Z,95345.24
2018-04-29T01:42:08.104Z,95353.97
2018-04-29T01:44:37.641Z,95356.03
2018-04-29T01:47:07.567Z,95360.00
2018-04-29T01:49:37.099Z,95360.52
2018-04-29T01:52:06.600Z,95359.44
2018-04-29T01:54:36.134Z,95347.80
2018-04-29T01:57:05.678Z,95343.78
2018-04-29T01:59:35.597Z,95350.97
2018-04-29T02:02:05.634Z,95352.94
2018-04-29T02:04:35.169Z,95351.91
2018-04-29T02:07:04.705Z,95343.52
2018-04-29T02:09:34.267Z,95347.09
2018-04-29T02:12:03.836Z,95337.44
2018-04-29T02:14:34.449Z,95332.36
2018-04-29T02:17:03.963Z,95327.06
2018-04-29T02:19:33.501Z,95324.62
2018-04-29T02:22:03.048Z,95331.72
2018-04-29T02:24:32.927Z,95336.86
2018-04-29T02:27:02.543Z,95322.86
2018-04-29T02:29:32.077Z,95333.73
2018-04-29T02:32:01.601Z,95327.25
2018-04-29T02:34:31.121Z,95328.39
2018-04-29T02:37:01.059Z,95324.31
2018-04-29T02:39:30.591Z,95326.80
2018-04-29T02:42:00.109Z,95320.70
2018-04-29T02:44:29.637Z,95325.98
2018-04-29T02:46:59.168Z,95322.16
2018-04-29T02:49:29.112Z,95331.73
2018-04-29T02:51:58.639Z,95335.85
2018-04-29T02:54:28.155Z,95328.03
2018-04-29T02:56:57.120Z,95325.78
2018-04-29T02:59:26.654Z,95326.50
2018-04-29T03:01:56.263Z,95317.37
2018-04-29T03:04:25.932Z,95319.18
2018-04-29T03:06:55.456Z,95307.97
2018-04-29T03:10:26.743Z,95305.75
2018-04-29T03:12:56.298Z,95307.77
2018-04-29T03:15:25.833Z,95304.30
2018-04-29T03:17:55.360Z,95301.77
2018-04-29T03:20:24.925Z,95289.02
2018-04-29T03:22:54.459Z,95300.73
2018-04-29T03:25:24.001Z,95296.50
2018-04-29T03:27:53.573Z,95297.20
2018-04-29T03:30:23.097Z,95302.78
2018-04-29T03:32:52.825Z,95305.94
2018-04-29T03:35:22.369Z,95303.80
2018-04-29T03:37:51.640Z,95301.65
2018-04-29T03:40:21.405Z,95309.37
2018-04-29T03:42:50.933Z,95306.64
2018-04-29T03:45:20.471Z,95311.44
2018-04-29T03:47:50.397Z,95292.73
2018-04-29T03:50:19.927Z,95312.21
2018-04-29T03:52:49.814Z,95303.98
2018-04-29T03:55:19.574Z,95290.73
2018-04-29T03:58:05.853Z,95285.98
2018-04-29T04:00:58.735Z,95287.64
2018-04-29T04:03:55.647Z,95273.88
2018-04-29T04:06:25.705Z,95262.62
2018-04-29T04:08:55.228Z,95267.28
2018-04-29T04:11:24.737Z,95262.06
2018-04-29T04:13:54.665Z,95268.05
2018-04-29T04:16:24.619Z,95263.17
2018-04-29T04:18:54.149Z,95257.64
2018-04-29T04:21:23.700Z,95271.06
2018-04-29T04:23:53.630Z,95265.38
2018-04-29T04:26:23.149Z,95261.80
2018-04-29T04:28:52.914Z,95271.42
2018-04-29T04:31:22.452Z,95288.25
2018-04-29T04:33:51.996Z,95291.67
2018-04-29T04:36:21.600Z,95291.36
2018-04-29T04:38:51.183Z,95285.28
2018-04-29T04:41:20.718Z,95284.47
2018-04-29T04:43:50.243Z,95280.73
2018-04-29T04:46:19.952Z,95281.00
2018-04-29T04:48:49.271Z,95272.02
2018-04-29T04:51:19.480Z,95277.63
2018-04-29T04:53:49.435Z,95274.75
2018-04-29T04:56:18.734Z,95274.45
2018-04-29T04:58:48.529Z,95288.98
2018-04-29T05:01:18.455Z,95283.49
2018-04-29T05:03:48.605Z,95282.16
2018-04-29T05:06:18.365Z,95290.14
2018-04-29T05:08:48.339Z,95276.41
2018-04-29T05:11:17.882Z,95268.45
2018-04-29T05:13:47.451Z,95286.08
2018-04-29T05:16:17.101Z,95287.51
2018-04-29T05:18:46.403Z,95284.59
2018-04-29T05:21:16.373Z,95283.88
2018-04-29T05:23:45.943Z,95274.25
2018-04-29T05:26:15.853Z,95270.94
2018-04-29T05:28:45.601Z,95269.41
2018-04-29T05:31:14.957Z,95261.48
2018-04-29T05:33:44.891Z,95257.73
2018-04-29T05:36:14.419Z,95254.00
2018-04-29T05:38:43.943Z,95262.83
2018-04-29T05:41:13.500Z,95265.14
2018-04-29T05:43:43.445Z,95271.32
2018-04-29T05:46:13.046Z,95265.38
2018-04-29T05:48:42.621Z,95275.97
2018-04-29T05:51:12.542Z,95263.33
2018-04-29T05:53:42.484Z,95258.72
2018-04-29T05:56:12.041Z,95259.20
2018-04-29T05:58:41.583Z,95256.53
2018-04-29T06:01:11.560Z,95257.11
2018-04-29T06:03:42.309Z,95241.09
2018-04-29T06:06:11.835Z,95237.98
2018-04-29T06:08:41.763Z,95239.62
2018-04-29T06:11:11.298Z,95236.31
2018-04-29T06:13:40.884Z,95250.28
2018-04-29T06:16:10.419Z,95252.95
2018-04-29T06:18:40.773Z,95249.61
2018-04-29T06:21:10.306Z,95241.73
2018-04-29T06:23:41.561Z,95232.02
2018-04-29T06:26:11.220Z,95235.72
2018-04-29T06:28:40.870Z,95232.63
2018-04-29T06:31:10.829Z,95238.50
2018-04-29T06:33:40.590Z,95230.51
2018-04-29T06:36:10.549Z,95230.19
2018-04-29T06:38:40.115Z,95207.94
2018-04-29T06:41:10.027Z,95209.75
2018-04-29T06:43:39.937Z,95206.87
2018-04-29T06:46:09.889Z,95195.67
2018-04-29T06:48:39.449Z,95196.16
2018-04-29T06:51:08.971Z,95201.06
2018-04-29T06:53:38.924Z,95192.73
2018-04-29T06:56:08.509Z,95199.27
2018-04-29T06:58:38.088Z,95192.86
2018-04-29T07:01:07.607Z,95195.61
2018-04-29T07:03:37.289Z,95197.17
2018-04-29T07:06:06.857Z,95201.73
2018-04-29T07:08:36.419Z,95204.45
2018-04-29T07:11:05.951Z,95210.62
2018-04-29T07:13:35.477Z,95216.55
2018-04-29T07:16:04.979Z,95212.24
2018-04-29T07:18:34.490Z,95218.27
2018-04-29T07:21:04.050Z,95204.20
2018-04-29T07:23:33.605Z,95188.28
2018-04-29T07:26:04.150Z,95191.48
2018-04-29T07:28:34.275Z,95191.11
2018-04-29T07:31:03.985Z,95182.77
2018-04-29T07:33:33.499Z,95174.67
2018-04-29T07:36:03.074Z,95174.31
2018-04-29T07:38:32.605Z,95178.36
2018-04-29T07:41:02.133Z,95173.64
2018-04-29T07:43:31.684Z,95155.70
2018-04-29T07:46:01.220Z,95165.86
2018-04-29T07:48:31.591Z,95158.64
2018-04-29T07:51:01.552Z,95156.98
2018-04-29T07:53:30.768Z,95151.34
2018-04-29T07:56:00.290Z,95141.63
2018-04-29T07:58:29.860Z,95151.00
2018-04-29T08:00:59.392Z,95140.08
2018-04-29T08:03:28.942Z,95138.70
2018-04-29T08:05:58.516Z,95136.88
2018-04-29T08:08:28.088Z,95130.86
2018-04-29T08:10:57.619Z,95133.92
2018-04-29T08:13:27.156Z,95129.56
2018-04-29T08:15:57.084Z,95133.70
2018-04-29T08:18:27.010Z,95127.07
2018-04-29T08:20:56.542Z,95132.45
2018-04-29T08:23:26.112Z,95136.96
2018-04-29T08:25:56.036Z,95130.53
2018-04-29T08:28:25.594Z,95133.47
2018-04-29T08:30:55.830Z,95131.86
2018-04-29T08:33:25.798Z,95135.08
2018-04-29T08:35:55.314Z,95133.64
2018-04-29T08:38:25.076Z,95140.59
2018-04-29T08:40:55.010Z,95126.72
2018-04-29T08:43:24.581Z,95123.56
2018-04-29T08:45:54.124Z,95116.87
2018-04-29T08:48:23.696Z,95118.94
2018-04-29T08:50:53.234Z,95133.23
2018-04-29T08:53:22.750Z,95126.48
2018-04-29T08:55:52.944Z,95126.88
2018-04-29T08:58:23.217Z,95121.30
2018-04-29T09:00:52.787Z,95119.09
2018-04-29T09:03:22.727Z,95115.84
2018-04-29T09:05:52.280Z,95113.02
2018-04-29T09:08:21.804Z,95115.70
2018-04-29T09:10:51.369Z,95105.27
2018-04-29T09:13:21.023Z,95113.08
2018-04-29T09:15:50.937Z,95115.41
2018-04-29T09:18:20.904Z,95109.66
2018-04-29T09:20:50.416Z,95107.40
2018-04-29T09:23:19.955Z,95106.58
2018-04-29T09:25:49.803Z,95104.56
2018-04-29T09:28:19.125Z,95094.31
2018-04-29T09:30:48.660Z,95100.07
2018-04-29T09:33:18.168Z,95089.72
2018-04-29T09:35:47.747Z,95095.64
2018-04-29T09:38:17.283Z,95081.58
2018-04-29T09:40:46.602Z,95085.23
2018-04-29T09:43:16.156Z,95071.09
2018-04-29T09:45:45.876Z,95072.46
2018-04-29T09:48:15.404Z,95057.16
2018-04-29T09:50:44.946Z,95065.73
2018-04-29T09:53:14.494Z,95065.34
2018-04-29T09:55:44.070Z,95056.50
2018-04-29T09:58:13.598Z,95053.80
2018-04-29T10:00:48.952Z,95054.41
2018-04-29T10:03:20.134Z,95044.87
2018-04-29T10:05:50.002Z,95043.20
2018-04-29T10:08:20.068Z,95038.00
2018-04-29T10:10:50.156Z,95039.98
2018-04-29T10:13:19.953Z,95039.03
2018-04-29T10:15:50.492Z,95035.88
2018-04-29T10:18:21.054Z,95028.09
2018-04-29T10:20:51.658Z,95023.08
2018-04-29T10:23:21.883Z,95020.62
2018-04-29T10:25:51.976Z,95019.55
2018-04-29T10:28:22.294Z,95021.35
2018-04-29T10:30:52.457Z,95018.78
2018-04-29T10:33:23.253Z,95022.67
2018-04-29T10:35:53.528Z,95018.58
2018-04-29T10:38:23.634Z,95018.84
2018-04-29T10:40:53.739Z,95016.89
2018-04-29T10:43:24.237Z,95000.94
2018-04-29T10:45:54.770Z,94997.97
2018-04-29T10:48:24.946Z,94997.16
2018-04-29T10:50:55.132Z,94983.31
2018-04-29T10:53:25.287Z,94985.20
2018-04-29T10:55:55.537Z,94974.95
2018-04-29T10:58:25.711Z,94972.48
2018-04-29T11:00:55.820Z,94962.44
2018-04-29T11:03:26.297Z,94959.68
2018-04-29T11:05:56.433Z,94958.30
2018-04-29T11:08:26.844Z,94956.16
2018-04-29T11:10:56.958Z,94942.38
2018-04-29T11:13:27.064Z,94949.93
2018-04-29T11:15:57.284Z,94943.09
2018-04-29T11:18:27.278Z,94949.11
2018-04-29T11:20:57.496Z,94946.41
2018-04-29T11:23:27.788Z,94943.19
2018-04-29T11:25:57.965Z,94934.06
2018-04-29T11:28:28.067Z,94929.30
2018-04-29T11:30:58.789Z,94930.23
2018-04-29T11:33:28.908Z,94925.78
2018-04-29T11:35:59.840Z,94921.95
2018-04-29T11:38:29.932Z,94917.41
2018-04-29T11:41:00.880Z,94918.69
2018-04-29T11:43:31.020Z,94912.73
2018-04-29T11:46:01.525Z,94913.73
2018-04-29T11:48:31.806Z,94900.91
2018-04-29T11:51:01.866Z,94892.59
2018-04-29T11:53:32.012Z,94886.80
2018-04-29T11:56:02.126Z,94885.27
2018-04-29T11:58:32.245Z,94885.87
2018-04-29T12:01:02.405Z,94879.70
2018-04-29T12:03:32.588Z,94886.37
2018-04-29T12:06:02.742Z,94877.39
2018-04-29T12:08:33.258Z,94869.83
2018-04-29T12:11:03.800Z,94863.61
2018-04-29T12:13:34.081Z,94862.16
2018-04-29T12:16:04.220Z,94865.41
2018-04-29T12:18:34.334Z,94859.42
2018-04-29T12:21:04.186Z,94851.68
2018-04-29T12:23:34.638Z,94850.55
2018-04-29T12:26:04.758Z,94843.98
2018-04-29T12:28:34.827Z,94833.06
2018-04-29T12:31:04.943Z,94824.48
2018-04-29T12:33:35.194Z,94830.84
2018-04-29T12:36:05.405Z,94821.50
2018-04-29T12:38:35.681Z,94821.45
2018-04-29T12:41:05.853Z,94807.75
2018-04-29T12:43:36.312Z,94797.05
2018-04-29T12:46:06.928Z,94796.89
2018-04-29T12:48:37.062Z,94794.58
2018-04-29T12:51:07.150Z,94783.26
2018-04-29T12:53:37.268Z,94777.83
2018-04-29T12:56:07.866Z,94772.84
2018-04-29T12:58:37.930Z,94773.48
2018-04-29T13:01:08.022Z,94770.05
2018-04-29T13:03:38.618Z,94764.92
2018-04-29T13:06:08.904Z,94760.58
2018-04-29T13:08:39.387Z,94753.20
2018-04-29T13:11:09.505Z,94744.70
2018-04-29T13:13:40.152Z,94740.10
2018-04-29T13:16:10.418Z,94738.34
2018-04-29T13:18:40.507Z,94734.70
2018-04-29T13:21:10.603Z,94729.94
2018-04-29T13:23:40.485Z,94724.66
2018-04-29T13:26:10.584Z,94728.73
2018-04-29T13:28:41.052Z,94717.35
2018-04-29T13:31:11.161Z,94703.30
2018-04-29T13:33:41.314Z,94701.88
2018-04-29T13:36:11.428Z,94703.82
2018-04-29T13:38:41.558Z,94697.72
2018-04-29T13:41:11.654Z,94686.17
2018-04-29T13:43:41.749Z,94685.23
2018-04-29T13:46:12.791Z,94691.98
2018-04-29T13:48:43.000Z,94675.27
2018-04-29T13:51:13.109Z,94675.86
2018-04-29T13:53:43.245Z,94673.17
2018-04-29T13:56:13.031Z,94665.61
2018-04-29T13:58:43.562Z,94654.17
2018-04-29T14:01:13.876Z,94648.87
2018-04-29T14:03:44.397Z,94647.95
2018-04-29T14:06:15.440Z,94646.14
2018-04-29T14:08:45.672Z,94642.35
2018-04-29T14:11:15.797Z,94637.69
2018-04-29T14:13:46.294Z,94634.62
2018-04-29T14:16:16.454Z,94630.25
2018-04-29T14:18:46.551Z,94627.59
2018-04-29T14:21:16.675Z,94623.16
2018-04-29T14:23:47.163Z,94624.41
2018-04-29T14:26:17.265Z,94619.31
2018-04-29T14:28:47.364Z,94616.17
2018-04-29T14:31:17.499Z,94607.33
2018-04-29T14:33:48.199Z,94597.08
2018-04-29T14:36:18.781Z,94591.91
2018-04-29T14:38:48.924Z,94595.07
2018-04-29T14:41:19.087Z,94587.69
2018-04-29T14:43:49.231Z,94585.63
2018-04-29T14:46:19.565Z,94584.19
2018-04-29T14:48:49.807Z,94584.88
2018-04-29T14:51:20.204Z,94578.92
2018-04-29T14:53:50.417Z,94578.93
2018-04-29T14:56:20.617Z,94584.39
2018-04-29T14:58:51.441Z,94587.63
2018-04-29T15:01:21.705Z,94581.86
2018-04-29T15:03:51.935Z,94583.69
2018-04-29T15:06:22.067Z,94582.77
2018-04-29T15:08:52.392Z,94575.78
2018-04-29T15:11:22.537Z,94569.69
2018-04-29T15:13:52.672Z,94567.70
2018-04-29T15:16:22.944Z,94570.25
2018-04-29T15:18:58.976Z,94562.20
2018-04-29T15:21:29.093Z,94560.40
2018-04-29T15:23:59.207Z,94564.28
2018-04-29T15:26:29.787Z,94565.33
2018-04-29T15:29:00.054Z,94557.80
2018-04-29T15:31:30.169Z,94555.71
2018-04-29T15:34:00.341Z,94561.70
2018-04-29T15:36:30.435Z,94551.30
2018-04-29T15:39:00.928Z,94548.53
2018-04-29T15:41:31.108Z,94543.21
2018-04-29T15:44:01.184Z,94543.27
2018-04-29T15:46:31.772Z,94538.91
2018-04-29T15:49:02.362Z,94537.08
2018-04-29T15:51:32.537Z,94539.34
2018-04-29T15:54:05.922Z,94543.06
2018-04-29T15:56:36.045Z,94529.66
2018-04-29T15:59:05.650Z,94534.05
2018-04-29T16:01:35.818Z,94530.61
2018-04-29T16:04:06.362Z,94531.85
2018-04-29T16:06:36.494Z,94525.89
2018-04-29T16:09:07.195Z,94527.26
2018-04-29T16:11:37.796Z,94520.90
2018-04-29T16:14:08.041Z,94522.12
2018-04-29T16:16:38.647Z,94512.00
2018-04-29T16:19:08.773Z,94519.38
2018-04-29T16:21:38.987Z,94508.58
2018-04-29T16:24:09.120Z,94508.68
2018-04-29T16:26:39.191Z,94512.56
2018-04-29T16:29:09.309Z,94508.41
2018-04-29T16:31:39.409Z,94496.04
2018-04-29T16:34:09.763Z,94496.30
2018-04-29T16:36:39.659Z,94484.45
2018-04-29T16:39:10.027Z,94476.72
2018-04-29T16:41:40.392Z,94477.55
2018-04-29T16:44:10.404Z,94469.50
2018-04-29T16:46:40.529Z,94467.14
2018-04-29T16:49:11.028Z,94464.56
2018-04-29T16:51:41.148Z,94455.62
2018-04-29T16:54:11.307Z,94460.95
2018-04-29T16:56:41.815Z,94453.83
2018-04-29T16:59:11.919Z,94451.55
2018-04-29T17:01:42.405Z,94444.69
2018-04-29T17:04:12.547Z,94445.74
2018-04-29T17:06:42.646Z,94442.79
2018-04-29T17:09:12.744Z,94442.62
2018-04-29T17:11:43.259Z,94442.56
2018-04-29T17:14:13.405Z,94444.29
2018-04-29T17:16:43.498Z,94443.23
2018-04-29T17:19:13.605Z,94435.25
2018-04-29T17:21:44.065Z,94428.84
2018-04-29T17:24:14.607Z,94431.00
2018-04-29T17:26:45.528Z,94427.75
2018-04-29T17:29:16.203Z,94430.53
2018-04-29T17:31:46.405Z,94421.90
2018-04-29T17:34:16.515Z,94416.48
2018-04-29T17:36:46.612Z,94418.30
2018-04-29T17:39:16.807Z,94421.76
2018-04-29T17:41:47.029Z,94417.07
2018-04-29T17:44:17.164Z,94417.31
2018-04-29T17:46:47.312Z,94401.31
2018-04-29T17:49:17.971Z,94392.47
2018-04-29T17:51:48.353Z,94383.05
2018-04-29T17:54:18.476Z,94383.16
2018-04-29T17:56:48.580Z,94385.06
2018-04-29T17:59:18.708Z,94390.61
2018-04-29T18:01:48.829Z,94383.43
2018-04-29T18:04:19.362Z,94375.44
2018-04-29T18:06:49.980Z,94371.58
2018-04-29T18:09:20.148Z,94367.17
2018-04-29T18:11:50.628Z,94366.42
2018-04-29T18:14:20.860Z,94367.80
2018-04-29T18:16:51.026Z,94367.55
2018-04-29T18:22:57.160Z,94362.88
2018-04-29T18:25:27.298Z,94367.70
2018-04-29T18:27:57.748Z,94364.55
2018-04-29T18:30:27.873Z,94357.09
2018-04-29T18:32:58.154Z,94362.16
2018-04-29T18:35:28.268Z,94366.04
2018-04-29T18:37:58.432Z,94356.70
2018-04-29T18:40:28.679Z,94357.84
2018-04-29T18:42:58.776Z,94353.06
2018-04-29T18:45:29.282Z,94346.64
2018-04-29T18:47:59.382Z,94341.96
2018-04-29T18:50:29.632Z,94334.64
2018-04-29T18:53:00.260Z,94332.14
2018-04-29T18:55:30.348Z,94334.12
2018-04-29T18:58:00.456Z,94326.42
2018-04-29T19:00:30.522Z,94318.87
2018-04-29T19:03:00.620Z,94318.62
2018-04-29T19:05:47.951Z,94311.72
2018-04-29T19:08:18.278Z,94307.91
2018-04-29T19:10:48.420Z,94306.89
2018-04-29T19:13:18.500Z,94300.83
2018-04-29T19:15:48.660Z,94296.17
2018-04-29T19:18:19.178Z,94308.98
2018-04-29T19:20:49.865Z,94298.55
2018-04-29T19:23:19.970Z,94296.13
2018-04-29T19:39:05.200Z,94317.84
2018-04-29T19:41:35.706Z,94313.20
2018-04-29T19:44:06.216Z,94307.31
2018-04-29T19:46:36.346Z,94307.17
2018-04-29T19:49:06.564Z,94313.84
2018-04-29T19:51:37.479Z,94308.94
2018-04-29T19:54:07.572Z,94316.61
2018-04-29T19:56:38.084Z,94311.27
2018-04-29T19:59:08.620Z,94319.12
2018-04-29T20:02:26.554Z,94313.58
2018-04-29T20:04:56.743Z,94323.37
2018-04-29T20:07:26.866Z,94315.06
2018-04-29T20:09:57.622Z,94297.14
2018-04-29T20:12:27.729Z,94304.28
2018-04-29T20:14:58.712Z,94304.42
2018-04-29T20:17:28.849Z,94298.36
2018-04-29T20:19:59.596Z,94300.51
2018-04-29T20:22:29.738Z,94306.45
2018-04-29T20:24:59.985Z,94298.02
2018-04-29T20:27:30.132Z,94309.65
2018-04-29T20:33:36.811Z,94312.00
2018-04-29T20:36:07.072Z,94307.98
2018-04-29T20:38:36.866Z,94306.58
2018-04-29T20:41:07.221Z,94310.82
2018-04-29T20:43:37.338Z,94312.66
2018-04-29T20:46:07.504Z,94315.52
2018-04-29T20:48:37.042Z,94320.03
2018-04-29T20:51:07.017Z,94316.97
2018-04-29T20:53:37.119Z,94310.16
2018-04-29T20:56:07.193Z,94318.58
2018-04-29T20:58:37.303Z,94325.80
2018-04-29T21:01:06.838Z,94319.98
2018-04-29T21:03:36.956Z,94320.95
2018-04-29T21:06:06.508Z,94326.48
2018-04-29T21:08:36.581Z,94329.27
2018-04-29T21:11:06.950Z,94324.13
2018-04-29T21:13:36.507Z,94324.78
2018-04-29T21:16:06.243Z,94317.99
2018-04-29T21:18:35.816Z,94329.06
2018-04-29T21:21:05.378Z,94331.48
2018-04-29T21:23:34.991Z,94339.67
2018-04-29T21:26:04.215Z,94344.82
2018-04-29T21:28:33.729Z,94336.91
2018-04-29T21:31:03.307Z,94324.32
2018-04-29T21:33:32.834Z,94310.61
2018-04-29T21:36:02.349Z,94305.70
2018-04-29T21:38:31.870Z,94313.14
2018-04-29T21:41:01.447Z,94312.12
2018-04-29T21:43:30.975Z,94306.92
2018-04-29T21:46:00.499Z,94299.98
2018-04-29T21:48:30.095Z,94300.05
2018-04-29T21:50:59.637Z,94301.88
2018-04-29T21:53:29.529Z,94296.95
2018-04-29T21:55:59.034Z,94290.17
2018-04-29T21:58:28.969Z,94297.28
2018-04-29T22:00:59.573Z,94297.14
2018-04-29T22:03:29.129Z,94286.91
2018-04-29T22:05:58.658Z,94279.99
2018-04-29T22:08:28.182Z,94305.11
2018-04-29T22:10:57.757Z,94345.90
2018-04-29T22:13:27.524Z,94365.12
2018-04-29T22:15:57.053Z,94380.80
2018-04-29T22:18:27.023Z,94402.65
2018-04-29T22:20:56.625Z,94406.23
2018-04-29T22:23:26.157Z,94424.05
2018-04-29T22:25:55.691Z,94424.98
2018-04-29T22:28:25.654Z,94422.06
2018-04-29T22:30:54.935Z,94422.83
2018-04-29T22:33:25.213Z,94430.42
2018-04-29T22:35:55.141Z,94448.42
2018-04-29T22:38:25.069Z,94455.07
2018-04-29T22:40:54.608Z,94466.41
2018-04-29T22:43:24.188Z,94474.11
2018-04-29T22:45:53.859Z,94479.22
2018-04-29T22:48:23.408Z,94480.38
2018-04-29T22:50:52.955Z,94480.84
2018-04-29T22:53:22.517Z,94475.81
2018-04-29T22:55:52.044Z,94487.08
2018-04-29T22:58:21.689Z,94511.95
2018-04-29T23:00:51.289Z,94524.02
2018-04-29T23:03:20.859Z,94526.67
2018-04-29T23:05:50.485Z,94527.69
2018-04-29T23:08:20.457Z,94535.45
2018-04-29T23:10:50.377Z,94550.63
2018-04-29T23:13:19.933Z,94566.95
2018-04-29T23:15:49.887Z,94571.75
2018-04-29T23:18:19.921Z,94594.54
2018-04-29T23:20:49.571Z,94594.07
2018-04-29T23:23:19.095Z,94606.28
2018-04-29T23:25:48.616Z,94613.88
2018-04-29T23:28:18.157Z,94627.07
2018-04-29T23:30:47.705Z,94641.84
2018-04-29T23:36:53.166Z,94644.59
2018-04-29T23:39:22.951Z,94650.19
2018-04-29T23:41:52.953Z,94648.45
2018-04-29T23:44:22.199Z,94653.53
2018-04-29T23:46:51.737Z,94658.86
2018-04-29T23:49:21.771Z,94675.70
2018-04-29T23:51:51.328Z,94693.32
2018-04-29T23:54:20.613Z,94704.02
2018-04-29T23:56:50.271Z,94696.27
2018-04-29T23:59:20.252Z,94697.22
